createdAt,value
2018-12-30T00:00:19.000Z,35.841
2018-12-30T00:10:19.000Z,35.873
2018-12-30T00:20:19.000Z,36.13
2018-12-30T00:30:20.000Z,36.162
2018-12-30T00:40:19.000Z,36.247
2018-12-30T00:50:19.000Z,36.387
2018-12-30T01:00:19.000Z,36.569
2018-12-30T01:10:19.000Z,36.74
2018-12-30T01:20:19.000Z,36.9
2018-12-30T01:30:19.000Z,37.039
2018-12-30T01:40:19.000Z,36.833
2018-12-30T01:50:19.000Z,37.338
2018-12-30T02:00:19.000Z,37.069
2018-12-30T02:10:19.000Z,37.143
2018-12-30T02:20:19.000Z,37.874
2018-12-30T02:30:19.000Z,37.84
2018-12-30T02:40:19.000Z,37.936
2018-12-30T02:50:19.000Z,38.107
2018-12-30T03:00:19.000Z,37.923
2018-12-30T03:10:19.000Z,38.213
2018-12-30T03:20:19.000Z,38.203
2018-12-30T03:30:19.000Z,38.254
2018-12-30T03:40:20.000Z,38.21
2018-12-30T03:50:19.000Z,38.403
2018-12-30T04:00:19.000Z,38.37
2018-12-30T04:10:19.000Z,38.617
2018-12-30T04:20:19.000Z,38.316
2018-12-30T04:30:19.000Z,38.551
2018-12-30T04:40:19.000Z,38.518
2018-12-30T04:50:19.000Z,38.485
2018-12-30T05:00:19.000Z,38.409
2018-12-30T05:10:19.000Z,38.495
2018-12-30T05:30:19.000Z,38.441
2018-12-30T05:40:19.000Z,38.613
2018-12-30T05:50:19.000Z,38.495
2018-12-30T06:00:19.000Z,38.571
2018-12-30T06:10:19.000Z,38.462
2018-12-30T06:20:19.000Z,38.463
2018-12-30T06:30:19.000Z,38.208
2018-12-30T06:40:19.000Z,38.25
2018-12-30T06:50:19.000Z,38.132
2018-12-30T07:00:19.000Z,38.004
2018-12-30T07:10:19.000Z,38.145
2018-12-30T07:20:19.000Z,37.897
2018-12-30T07:30:19.000Z,37.801
2018-12-30T07:40:19.000Z,37.63
2018-12-30T07:50:19.000Z,37.62
2018-12-30T08:00:19.000Z,37.202
2018-12-30T08:10:20.000Z,37.385
2018-12-30T08:20:20.000Z,37.203
2018-12-30T08:30:20.000Z,36.795
2018-12-30T08:40:20.000Z,36.311
2018-12-30T08:50:20.000Z,36.355
2018-12-30T09:00:20.000Z,35.989
2018-12-30T09:10:20.000Z,36.162
2018-12-30T09:20:20.000Z,36.702
2018-12-30T09:30:20.000Z,36.648
2018-12-30T09:40:20.000Z,36.584
2018-12-30T09:50:20.000Z,36.564
2018-12-30T10:00:20.000Z,36.705
2018-12-30T10:10:20.000Z,36.801
2018-12-30T10:20:20.000Z,36.833
2018-12-30T10:30:20.000Z,36.942
2018-12-30T10:40:20.000Z,36.802
2018-12-30T10:50:20.000Z,36.76
2018-12-30T11:00:20.000Z,36.697
2018-12-30T11:10:20.000Z,36.836
2018-12-30T11:20:20.000Z,36.828
2018-12-30T11:30:20.000Z,36.795
2018-12-30T11:40:20.000Z,36.709
2018-12-30T11:50:20.000Z,36.647
2018-12-30T12:00:20.000Z,36.679
2018-12-30T12:10:20.000Z,36.583
2018-12-30T12:20:20.000Z,36.4
2018-12-30T12:30:20.000Z,36.456
2018-12-30T12:40:20.000Z,36.684
2018-12-30T12:50:20.000Z,36.586
2018-12-30T13:00:20.000Z,36.577
2018-12-30T13:10:20.000Z,36.382
2018-12-30T13:20:21.000Z,36.382
2018-12-30T13:30:20.000Z,36.448
2018-12-30T13:40:20.000Z,36.276
2018-12-30T13:50:20.000Z,36.203
2018-12-30T14:00:20.000Z,36.267
2018-12-30T14:10:20.000Z,36.138
2018-12-30T14:20:20.000Z,36.193
2018-12-30T14:30:20.000Z,36.172
2018-12-30T14:40:20.000Z,36.302
2018-12-30T14:50:20.000Z,36.108
2018-12-30T15:00:20.000Z,36.14
2018-12-30T15:10:20.000Z,36.27
2018-12-30T15:20:20.000Z,36.281
2018-12-30T15:30:20.000Z,36.215
2018-12-30T15:40:20.000Z,36.302
2018-12-30T15:50:20.000Z,36.324
2018-12-30T16:00:20.000Z,36.27
2018-12-30T16:10:20.000Z,36.141
2018-12-30T16:20:20.000Z,36.207
2018-12-30T16:30:21.000Z,36.164
2018-12-30T16:40:21.000Z,36.174
2018-12-30T16:50:21.000Z,36.186
2018-12-30T17:00:22.000Z,36.154
2018-12-30T17:10:21.000Z,36.223
2018-12-30T17:20:21.000Z,36.5
2018-12-30T17:30:24.000Z,36.623
2018-12-30T17:40:21.000Z,36.735
2018-12-30T17:50:21.000Z,37.009
2018-12-30T18:00:21.000Z,37.152
2018-12-30T18:10:21.000Z,36.903
2018-12-30T18:20:21.000Z,36.916
2018-12-30T18:30:21.000Z,36.884
2018-12-30T18:40:21.000Z,36.943
2018-12-30T18:50:21.000Z,37.017
2018-12-30T19:00:21.000Z,36.855
2018-12-30T19:10:21.000Z,36.823
2018-12-30T19:20:21.000Z,36.804
2018-12-30T19:30:21.000Z,36.849
2018-12-30T19:40:21.000Z,36.827
2018-12-30T19:50:21.000Z,36.839
2018-12-30T20:00:21.000Z,36.885
2018-12-30T20:10:21.000Z,36.779
2018-12-30T20:20:21.000Z,36.81
2018-12-30T20:30:21.000Z,36.705
2018-12-30T20:40:21.000Z,36.75
2018-12-30T20:50:22.000Z,36.782
2018-12-30T21:00:21.000Z,36.718
2018-12-30T21:10:21.000Z,36.871
2018-12-30T21:20:23.000Z,36.85
2018-12-30T21:30:21.000Z,36.742
2018-12-30T21:40:21.000Z,36.793
2018-12-30T21:50:21.000Z,36.628
2018-12-30T22:10:21.000Z,37.97
2018-12-30T22:20:21.000Z,38.306
2018-12-30T22:30:21.000Z,38.583
2018-12-30T22:40:21.000Z,39.021
2018-12-30T22:50:21.000Z,39.184
2018-12-30T23:00:21.000Z,39.136
2018-12-30T23:10:21.000Z,39.166
2018-12-30T23:20:21.000Z,39.24
2018-12-30T23:30:21.000Z,39.205
2018-12-30T23:40:21.000Z,38.825
2018-12-30T23:50:21.000Z,38.682
